sensor_id;sensor_type;location;lat;lon;timestamp;pressure;altitude;pressure_sealevel;temperature;humidity
69879;BME280;57161;43.136;24.706;2023-02-07T00:01:12;100948.13;;;-2.05;76.88
69879;BME280;57161;43.136;24.706;2023-02-07T00:03:38;100945.88;;;-2.10;76.49
69879;BME280;57161;43.136;24.706;2023-02-07T00:06:10;100950.59;;;-2.15;76.93
69879;BME280;57161;43.136;24.706;2023-02-07T00:08:37;100949.38;;;-2.10;76.68
69879;BME280;57161;43.136;24.706;2023-02-07T00:11:06;100947.50;;;-2.17;76.95
69879;BME280;57161;43.136;24.706;2023-02-07T00:13:33;100892.09;;;-2.51;76.92
69879;BME280;57161;43.136;24.706;2023-02-07T00:15:58;100952.34;;;-2.24;77.25
69879;BME280;57161;43.136;24.706;2023-02-07T00:18:24;100936.00;;;-2.31;77.20
69879;BME280;57161;43.136;24.706;2023-02-07T00:21:03;100950.47;;;-2.31;77.53
69879;BME280;57161;43.136;24.706;2023-02-07T00:23:29;100953.25;;;-2.34;78.03
69879;BME280;57161;43.136;24.706;2023-02-07T00:25:54;100938.53;;;-2.44;77.68
69879;BME280;57161;43.136;24.706;2023-02-07T00:28:20;100937.34;;;-2.43;78.23
69879;BME280;57161;43.136;24.706;2023-02-07T00:30:46;100911.94;;;-2.44;78.59
69879;BME280;57161;43.136;24.706;2023-02-07T00:33:12;100940.78;;;-2.12;77.32
69879;BME280;57161;43.136;24.706;2023-02-07T00:35:38;100948.63;;;-2.10;76.90
69879;BME280;57161;43.136;24.706;2023-02-07T00:38:03;100952.84;;;-2.06;76.46
69879;BME280;57161;43.136;24.706;2023-02-07T00:40:29;100925.66;;;-2.20;76.30
69879;BME280;57161;43.136;24.706;2023-02-07T00:42:57;100951.75;;;-2.12;76.07
69879;BME280;57161;43.136;24.706;2023-02-07T00:45:23;100961.41;;;-2.04;76.24
69879;BME280;57161;43.136;24.706;2023-02-07T00:47:48;100946.94;;;-2.04;76.11
69879;BME280;57161;43.136;24.706;2023-02-07T00:50:14;100946.75;;;-2.17;76.06
69879;BME280;57161;43.136;24.706;2023-02-07T00:52:39;100941.97;;;-2.13;75.95
69879;BME280;57161;43.136;24.706;2023-02-07T00:55:05;100952.78;;;-2.02;75.94
69879;BME280;57161;43.136;24.706;2023-02-07T00:57:31;100959.88;;;-2.05;76.01
69879;BME280;57161;43.136;24.706;2023-02-07T00:59:56;100953.69;;;-2.09;76.45
69879;BME280;57161;43.136;24.706;2023-02-07T01:02:22;100947.06;;;-2.12;75.95
69879;BME280;57161;43.136;24.706;2023-02-07T01:04:47;100952.44;;;-2.04;75.79
69879;BME280;57161;43.136;24.706;2023-02-07T01:07:13;100921.13;;;-2.30;76.13
69879;BME280;57161;43.136;24.706;2023-02-07T01:09:38;100947.44;;;-2.13;76.32
69879;BME280;57161;43.136;24.706;2023-02-07T01:12:04;100936.88;;;-2.11;75.64
69879;BME280;57161;43.136;24.706;2023-02-07T01:14:29;100944.19;;;-2.04;75.56
69879;BME280;57161;43.136;24.706;2023-02-07T01:16:55;100942.38;;;-2.11;75.70
69879;BME280;57161;43.136;24.706;2023-02-07T01:19:21;100935.78;;;-2.17;75.63
69879;BME280;57161;43.136;24.706;2023-02-07T01:21:46;100940.91;;;-2.19;75.93
69879;BME280;57161;43.136;24.706;2023-02-07T01:24:12;100940.13;;;-2.20;75.73
69879;BME280;57161;43.136;24.706;2023-02-07T01:26:38;100916.47;;;-2.33;75.95
69879;BME280;57161;43.136;24.706;2023-02-07T01:29:04;100937.88;;;-2.25;76.11
69879;BME280;57161;43.136;24.706;2023-02-07T01:31:30;100925.16;;;-2.38;76.34
69879;BME280;57161;43.136;24.706;2023-02-07T01:33:57;100933.72;;;-2.36;76.55
69879;BME280;57161;43.136;24.706;2023-02-07T01:36:24;100936.13;;;-2.38;76.46
69879;BME280;57161;43.136;24.706;2023-02-07T01:38:52;100939.91;;;-2.32;76.63
69879;BME280;57161;43.136;24.706;2023-02-07T01:41:19;100936.81;;;-2.34;76.74
69879;BME280;57161;43.136;24.706;2023-02-07T01:43:56;100934.03;;;-2.31;75.94
69879;BME280;57161;43.136;24.706;2023-02-07T01:46:22;100933.38;;;-2.38;76.18
69879;BME280;57161;43.136;24.706;2023-02-07T01:48:48;100928.50;;;-2.54;76.38
69879;BME280;57161;43.136;24.706;2023-02-07T01:51:15;100919.88;;;-2.53;76.34
69879;BME280;57161;43.136;24.706;2023-02-07T01:53:41;100936.19;;;-2.46;76.81
69879;BME280;57161;43.136;24.706;2023-02-07T01:56:09;100933.78;;;-2.40;76.95
69879;BME280;57161;43.136;24.706;2023-02-07T01:58:36;100940.44;;;-2.41;76.63
69879;BME280;57161;43.136;24.706;2023-02-07T02:01:08;100940.75;;;-2.35;76.37
69879;BME280;57161;43.136;24.706;2023-02-07T02:03:38;100919.41;;;-2.48;76.14
69879;BME280;57161;43.136;24.706;2023-02-07T02:06:05;100934.03;;;-2.31;76.13
69879;BME280;57161;43.136;24.706;2023-02-07T02:08:30;100912.81;;;-2.50;76.02
69879;BME280;57161;43.136;24.706;2023-02-07T02:16:41;100931.13;;;-2.47;76.67
69879;BME280;57161;43.136;24.706;2023-02-07T02:27:29;100932.25;;;-2.41;76.39
69879;BME280;57161;43.136;24.706;2023-02-07T02:33:16;100935.13;;;-2.52;76.57
69879;BME280;57161;43.136;24.706;2023-02-07T02:36:00;100924.66;;;-2.57;76.72
69879;BME280;57161;43.136;24.706;2023-02-07T02:38:48;100935.53;;;-2.53;77.26
69879;BME280;57161;43.136;24.706;2023-02-07T02:41:25;100904.97;;;-2.75;77.30
69879;BME280;57161;43.136;24.706;2023-02-07T02:44:00;100934.47;;;-2.63;77.13
69879;BME280;57161;43.136;24.706;2023-02-07T02:46:30;100938.88;;;-2.69;77.38
69879;BME280;57161;43.136;24.706;2023-02-07T02:48:59;100943.56;;;-2.69;77.56
69879;BME280;57161;43.136;24.706;2023-02-07T02:51:29;100934.28;;;-2.76;77.53
69879;BME280;57161;43.136;24.706;2023-02-07T02:53:56;100946.25;;;-2.66;77.65
69879;BME280;57161;43.136;24.706;2023-02-07T03:04:57;100971.53;;;-2.55;77.39
69879;BME280;57161;43.136;24.706;2023-02-07T03:13:00;100960.41;;;-2.40;77.21
69879;BME280;57161;43.136;24.706;2023-02-07T03:15:39;100964.16;;;-2.31;77.09
69879;BME280;57161;43.136;24.706;2023-02-07T03:21:04;100961.00;;;-2.29;77.28
69879;BME280;57161;43.136;24.706;2023-02-07T03:23:31;100951.66;;;-2.32;77.19
69879;BME280;57161;43.136;24.706;2023-02-07T03:25:59;100946.19;;;-2.32;76.63
69879;BME280;57161;43.136;24.706;2023-02-07T03:28:27;100968.28;;;-2.19;76.30
69879;BME280;57161;43.136;24.706;2023-02-07T03:30:55;100942.88;;;-2.47;76.06
69879;BME280;57161;43.136;24.706;2023-02-07T03:33:23;100957.06;;;-2.55;76.53
69879;BME280;57161;43.136;24.706;2023-02-07T03:38:22;100968.19;;;-2.39;76.98
69879;BME280;57161;43.136;24.706;2023-02-07T03:40:52;100950.22;;;-2.40;76.52
69879;BME280;57161;43.136;24.706;2023-02-07T03:43:24;100944.69;;;-2.36;75.96
69879;BME280;57161;43.136;24.706;2023-02-07T03:45:51;100947.28;;;-2.26;76.42
69879;BME280;57161;43.136;24.706;2023-02-07T03:48:16;100948.06;;;-2.29;76.52
69879;BME280;57161;43.136;24.706;2023-02-07T03:50:43;100945.41;;;-2.32;76.67
69879;BME280;57161;43.136;24.706;2023-02-07T03:53:09;100963.53;;;-2.15;76.61
69879;BME280;57161;43.136;24.706;2023-02-07T03:55:35;100961.91;;;-2.13;76.83
69879;BME280;57161;43.136;24.706;2023-02-07T03:58:01;100962.31;;;-2.10;76.93
69879;BME280;57161;43.136;24.706;2023-02-07T04:00:26;100949.66;;;-2.28;77.06
69879;BME280;57161;43.136;24.706;2023-02-07T04:02:52;100957.59;;;-2.10;76.86
69879;BME280;57161;43.136;24.706;2023-02-07T04:05:18;100965.69;;;-2.03;76.33
69879;BME280;57161;43.136;24.706;2023-02-07T04:07:44;100970.00;;;-2.02;76.08
69879;BME280;57161;43.136;24.706;2023-02-07T04:10:10;100969.22;;;-2.02;75.47
69879;BME280;57161;43.136;24.706;2023-02-07T04:12:36;100958.81;;;-2.15;75.55
69879;BME280;57161;43.136;24.706;2023-02-07T04:15:03;100965.44;;;-2.12;75.81
69879;BME280;57161;43.136;24.706;2023-02-07T04:17:29;100960.13;;;-2.23;75.29
69879;BME280;57161;43.136;24.706;2023-02-07T04:19:55;100966.38;;;-2.22;76.08
69879;BME280;57161;43.136;24.706;2023-02-07T04:22:20;100963.22;;;-2.21;76.08
69879;BME280;57161;43.136;24.706;2023-02-07T04:24:46;100968.22;;;-2.16;75.84
69879;BME280;57161;43.136;24.706;2023-02-07T04:27:12;100975.59;;;-2.09;75.82
69879;BME280;57161;43.136;24.706;2023-02-07T04:29:38;100981.47;;;-2.10;75.69
69879;BME280;57161;43.136;24.706;2023-02-07T04:32:03;100978.34;;;-2.13;76.04
69879;BME280;57161;43.136;24.706;2023-02-07T04:34:29;100977.22;;;-2.15;75.74
69879;BME280;57161;43.136;24.706;2023-02-07T04:36:55;100959.00;;;-2.25;75.99
69879;BME280;57161;43.136;24.706;2023-02-07T04:39:20;100976.44;;;-2.16;76.17
69879;BME280;57161;43.136;24.706;2023-02-07T04:41:46;100986.19;;;-2.11;75.92
69879;BME280;57161;43.136;24.706;2023-02-07T04:44:11;100980.38;;;-2.17;75.26
69879;BME280;57161;43.136;24.706;2023-02-07T04:46:37;100994.78;;;-2.13;75.56
69879;BME280;57161;43.136;24.706;2023-02-07T04:49:02;100960.56;;;-2.24;75.70
69879;BME280;57161;43.136;24.706;2023-02-07T04:51:29;100988.88;;;-2.07;75.37
69879;BME280;57161;43.136;24.706;2023-02-07T04:53:54;100990.84;;;-2.08;75.15
69879;BME280;57161;43.136;24.706;2023-02-07T04:56:21;101000.69;;;-2.14;74.97
69879;BME280;57161;43.136;24.706;2023-02-07T04:58:47;101003.13;;;-2.20;74.92
69879;BME280;57161;43.136;24.706;2023-02-07T05:01:12;100985.41;;;-2.38;75.54
69879;BME280;57161;43.136;24.706;2023-02-07T05:03:37;101011.06;;;-2.29;75.76
69879;BME280;57161;43.136;24.706;2023-02-07T05:06:03;100982.38;;;-2.48;76.58
69879;BME280;57161;43.136;24.706;2023-02-07T05:08:29;101010.44;;;-2.40;76.94
69879;BME280;57161;43.136;24.706;2023-02-07T05:10:54;101006.94;;;-2.40;76.94
69879;BME280;57161;43.136;24.706;2023-02-07T05:13:21;101017.78;;;-2.33;76.82
69879;BME280;57161;43.136;24.706;2023-02-07T05:15:47;101018.97;;;-2.34;76.90
69879;BME280;57161;43.136;24.706;2023-02-07T05:18:12;101012.06;;;-2.46;76.49
69879;BME280;57161;43.136;24.706;2023-02-07T05:20:38;100993.44;;;-2.55;76.46
69879;BME280;57161;43.136;24.706;2023-02-07T05:23:04;101010.56;;;-2.51;76.62
69879;BME280;57161;43.136;24.706;2023-02-07T05:25:30;101009.75;;;-2.48;76.13
69879;BME280;57161;43.136;24.706;2023-02-07T05:27:55;101011.22;;;-2.39;76.60
69879;BME280;57161;43.136;24.706;2023-02-07T05:30:21;101022.53;;;-2.37;76.53
69879;BME280;57161;43.136;24.706;2023-02-07T05:32:46;101017.09;;;-2.41;76.31
69879;BME280;57161;43.136;24.706;2023-02-07T05:35:35;101016.78;;;-2.47;76.72
69879;BME280;57161;43.136;24.706;2023-02-07T05:38:03;101029.28;;;-2.46;76.86
69879;BME280;57161;43.136;24.706;2023-02-07T05:40:30;101026.22;;;-2.51;77.09
69879;BME280;57161;43.136;24.706;2023-02-07T05:42:56;101027.88;;;-2.61;76.94
69879;BME280;57161;43.136;24.706;2023-02-07T05:45:22;101007.38;;;-2.76;77.00
69879;BME280;57161;43.136;24.706;2023-02-07T05:47:47;100974.78;;;-2.97;76.99
69879;BME280;57161;43.136;24.706;2023-02-07T05:50:13;101025.66;;;-2.69;77.11
69879;BME280;57161;43.136;24.706;2023-02-07T05:52:39;101018.69;;;-2.74;77.41
69879;BME280;57161;43.136;24.706;2023-02-07T05:55:05;101047.34;;;-2.52;77.63
69879;BME280;57161;43.136;24.706;2023-02-07T05:57:30;101048.84;;;-2.47;77.38
69879;BME280;57161;43.136;24.706;2023-02-07T05:59:56;101050.81;;;-2.48;77.42
69879;BME280;57161;43.136;24.706;2023-02-07T06:02:22;101044.97;;;-2.50;77.20
69879;BME280;57161;43.136;24.706;2023-02-07T06:04:47;101022.41;;;-2.61;77.01
69879;BME280;57161;43.136;24.706;2023-02-07T06:07:13;101055.06;;;-2.43;76.97
69879;BME280;57161;43.136;24.706;2023-02-07T06:09:38;101033.53;;;-2.41;76.88
69879;BME280;57161;43.136;24.706;2023-02-07T06:12:04;101036.22;;;-2.37;76.83
69879;BME280;57161;43.136;24.706;2023-02-07T06:14:30;101043.47;;;-2.24;76.76
69879;BME280;57161;43.136;24.706;2023-02-07T06:16:55;101025.53;;;-2.28;76.00
69879;BME280;57161;43.136;24.706;2023-02-07T06:19:21;101037.53;;;-2.19;75.84
69879;BME280;57161;43.136;24.706;2023-02-07T06:21:46;101040.22;;;-2.15;75.80
69879;BME280;57161;43.136;24.706;2023-02-07T06:24:12;101029.31;;;-2.19;75.55
69879;BME280;57161;43.136;24.706;2023-02-07T06:26:37;101029.25;;;-2.15;75.33
69879;BME280;57161;43.136;24.706;2023-02-07T06:29:03;101041.00;;;-2.15;75.21
69879;BME280;57161;43.136;24.706;2023-02-07T06:31:28;101039.03;;;-2.14;75.40
69879;BME280;57161;43.136;24.706;2023-02-07T06:33:54;101038.72;;;-2.20;75.26
69879;BME280;57161;43.136;24.706;2023-02-07T06:36:19;101034.38;;;-2.17;75.30
69879;BME280;57161;43.136;24.706;2023-02-07T06:38:45;101040.75;;;-2.24;74.87
69879;BME280;57161;43.136;24.706;2023-02-07T06:41:10;101028.66;;;-2.26;75.19
69879;BME280;57161;43.136;24.706;2023-02-07T06:43:39;101060.44;;;-2.05;75.52
69879;BME280;57161;43.136;24.706;2023-02-07T06:46:05;101045.16;;;-2.03;75.15
69879;BME280;57161;43.136;24.706;2023-02-07T06:48:30;101056.75;;;-1.92;74.61
69879;BME280;57161;43.136;24.706;2023-02-07T06:50:56;101047.38;;;-1.94;74.31
69879;BME280;57161;43.136;24.706;2023-02-07T06:53:21;101041.50;;;-1.96;74.48
69879;BME280;57161;43.136;24.706;2023-02-07T06:55:47;101020.50;;;-2.03;74.32
69879;BME280;57161;43.136;24.706;2023-02-07T06:58:12;101057.81;;;-1.86;74.40
69879;BME280;57161;43.136;24.706;2023-02-07T07:00:38;101052.34;;;-1.86;74.55
69879;BME280;57161;43.136;24.706;2023-02-07T07:03:03;101063.00;;;-1.91;75.11
69879;BME280;57161;43.136;24.706;2023-02-07T07:05:29;101001.94;;;-2.19;74.69
69879;BME280;57161;43.136;24.706;2023-02-07T07:07:56;101057.41;;;-1.84;74.88
69879;BME280;57161;43.136;24.706;2023-02-07T07:10:22;101051.91;;;-1.84;74.73
69879;BME280;57161;43.136;24.706;2023-02-07T07:12:47;101067.91;;;-1.79;74.38
69879;BME280;57161;43.136;24.706;2023-02-07T07:15:13;101073.22;;;-1.68;74.45
69879;BME280;57161;43.136;24.706;2023-02-07T07:17:40;101042.34;;;-1.72;74.02
69879;BME280;57161;43.136;24.706;2023-02-07T07:20:06;101065.38;;;-1.43;74.09
69879;BME280;57161;43.136;24.706;2023-02-07T07:22:33;101063.72;;;-1.37;73.73
69879;BME280;57161;43.136;24.706;2023-02-07T07:24:58;101064.31;;;-1.26;73.79
69879;BME280;57161;43.136;24.706;2023-02-07T07:27:24;101052.84;;;-1.21;72.96
69879;BME280;57161;43.136;24.706;2023-02-07T07:29:50;101074.38;;;-0.96;72.81
69879;BME280;57161;43.136;24.706;2023-02-07T07:32:16;101072.44;;;-0.75;71.61
69879;BME280;57161;43.136;24.706;2023-02-07T07:34:41;101056.31;;;-0.53;70.63
69879;BME280;57161;43.136;24.706;2023-02-07T07:37:07;101052.84;;;-0.38;69.78
69879;BME280;57161;43.136;24.706;2023-02-07T07:39:32;101057.72;;;-0.25;68.99
69879;BME280;57161;43.136;24.706;2023-02-07T07:41:58;101061.44;;;-0.16;67.39
69879;BME280;57161;43.136;24.706;2023-02-07T07:44:24;101053.97;;;-0.15;65.36
69879;BME280;57161;43.136;24.706;2023-02-07T07:46:49;101056.13;;;-0.07;64.51
69879;BME280;57161;43.136;24.706;2023-02-07T07:49:15;101052.03;;;0.02;63.83
69879;BME280;57161;43.136;24.706;2023-02-07T07:51:40;101046.16;;;-0.01;63.42
69879;BME280;57161;43.136;24.706;2023-02-07T07:54:06;101053.31;;;0.13;63.12
69879;BME280;57161;43.136;24.706;2023-02-07T07:56:31;101049.81;;;0.29;62.31
69879;BME280;57161;43.136;24.706;2023-02-07T07:59:00;101045.03;;;0.33;62.50
69879;BME280;57161;43.136;24.706;2023-02-07T08:01:26;101045.88;;;0.46;63.04
69879;BME280;57161;43.136;24.706;2023-02-07T08:03:52;101055.50;;;0.71;62.70
69879;BME280;57161;43.136;24.706;2023-02-07T08:06:17;101042.94;;;0.86;62.25
69879;BME280;57161;43.136;24.706;2023-02-07T08:08:43;101040.53;;;0.88;60.77
69879;BME280;57161;43.136;24.706;2023-02-07T08:11:09;101048.81;;;0.55;59.56
69879;BME280;57161;43.136;24.706;2023-02-07T08:13:35;101052.66;;;0.42;59.99
69879;BME280;57161;43.136;24.706;2023-02-07T08:16:02;101038.75;;;0.49;60.50
69879;BME280;57161;43.136;24.706;2023-02-07T08:18:28;101051.34;;;0.79;59.38
69879;BME280;57161;43.136;24.706;2023-02-07T08:20:54;101048.19;;;0.80;59.78
69879;BME280;57161;43.136;24.706;2023-02-07T08:23:20;101041.81;;;0.83;58.99
69879;BME280;57161;43.136;24.706;2023-02-07T08:25:46;101057.44;;;1.03;59.90
69879;BME280;57161;43.136;24.706;2023-02-07T08:28:12;101050.53;;;1.11;58.26
69879;BME280;57161;43.136;24.706;2023-02-07T08:30:38;101049.19;;;1.03;57.96
69879;BME280;57161;43.136;24.706;2023-02-07T08:33:03;101057.72;;;0.92;57.70
69879;BME280;57161;43.136;24.706;2023-02-07T08:35:29;101044.91;;;0.85;58.33
69879;BME280;57161;43.136;24.706;2023-02-07T08:37:55;101044.75;;;0.76;58.84
69879;BME280;57161;43.136;24.706;2023-02-07T08:40:22;101048.53;;;0.82;58.80
69879;BME280;57161;43.136;24.706;2023-02-07T08:42:48;101041.56;;;0.78;58.21
69879;BME280;57161;43.136;24.706;2023-02-07T08:45:13;101035.41;;;0.57;58.37
69879;BME280;57161;43.136;24.706;2023-02-07T08:47:44;101050.00;;;0.38;58.90
69879;BME280;57161;43.136;24.706;2023-02-07T08:50:12;101050.09;;;0.35;59.60
69879;BME280;57161;43.136;24.706;2023-02-07T08:52:38;101046.38;;;0.25;60.17
69879;BME280;57161;43.136;24.706;2023-02-07T08:55:04;101009.41;;;-0.07;60.86
69879;BME280;57161;43.136;24.706;2023-02-07T08:57:30;101042.84;;;0.08;60.85
69879;BME280;57161;43.136;24.706;2023-02-07T08:59:55;101037.63;;;0.30;61.01
69879;BME280;57161;43.136;24.706;2023-02-07T09:02:21;101034.72;;;0.53;60.82
69879;BME280;57161;43.136;24.706;2023-02-07T09:04:46;101036.41;;;0.80;60.88
69879;BME280;57161;43.136;24.706;2023-02-07T09:07:12;101018.03;;;0.28;60.58
69879;BME280;57161;43.136;24.706;2023-02-07T09:09:38;101037.28;;;0.44;60.43
69879;BME280;57161;43.136;24.706;2023-02-07T09:12:05;101030.00;;;0.54;59.84
69879;BME280;57161;43.136;24.706;2023-02-07T09:14:31;101035.16;;;0.52;59.91
69879;BME280;57161;43.136;24.706;2023-02-07T09:16:57;101031.63;;;0.51;59.18
69879;BME280;57161;43.136;24.706;2023-02-07T09:19:22;101032.88;;;0.30;59.82
69879;BME280;57161;43.136;24.706;2023-02-07T09:21:48;101017.59;;;0.46;58.90
69879;BME280;57161;43.136;24.706;2023-02-07T09:24:13;101005.06;;;0.28;58.17
69879;BME280;57161;43.136;24.706;2023-02-07T09:26:39;101044.00;;;0.43;58.77
69879;BME280;57161;43.136;24.706;2023-02-07T09:29:06;101038.50;;;0.43;58.29
69879;BME280;57161;43.136;24.706;2023-02-07T09:31:33;101035.22;;;0.32;59.13
69879;BME280;57161;43.136;24.706;2023-02-07T09:33:59;101028.00;;;0.06;59.91
69879;BME280;57161;43.136;24.706;2023-02-07T09:36:28;101034.38;;;-0.17;61.57
69879;BME280;57161;43.136;24.706;2023-02-07T09:38:54;101035.22;;;-0.20;60.53
69879;BME280;57161;43.136;24.706;2023-02-07T09:43:54;101025.00;;;-0.20;61.49
69879;BME280;57161;43.136;24.706;2023-02-07T09:46:29;101015.09;;;-0.34;61.04
69879;BME280;57161;43.136;24.706;2023-02-07T09:49:06;101017.69;;;-0.26;61.14
69879;BME280;57161;43.136;24.706;2023-02-07T09:51:35;101011.81;;;-0.09;60.99
69879;BME280;57161;43.136;24.706;2023-02-07T09:54:17;101013.53;;;-0.15;61.50
69879;BME280;57161;43.136;24.706;2023-02-07T09:56:46;100991.56;;;-0.15;61.92
69879;BME280;57161;43.136;24.706;2023-02-07T09:59:25;100998.00;;;0.11;62.69
69879;BME280;57161;43.136;24.706;2023-02-07T10:02:00;100993.19;;;-0.01;60.23
69879;BME280;57161;43.136;24.706;2023-02-07T10:04:31;100999.47;;;0.16;60.00
69879;BME280;57161;43.136;24.706;2023-02-07T10:07:02;100992.84;;;0.29;60.55
69879;BME280;57161;43.136;24.706;2023-02-07T10:09:40;100993.88;;;0.52;60.05
69879;BME280;57161;43.136;24.706;2023-02-07T10:20:37;100968.69;;;0.53;59.93
69879;BME280;57161;43.136;24.706;2023-02-07T10:25:47;100967.16;;;0.52;61.45
69879;BME280;57161;43.136;24.706;2023-02-07T10:30:40;100961.81;;;0.45;60.46
69879;BME280;57161;43.136;24.706;2023-02-07T10:33:16;100957.53;;;0.28;59.55
69879;BME280;57161;43.136;24.706;2023-02-07T10:35:43;100960.28;;;0.44;60.94
69879;BME280;57161;43.136;24.706;2023-02-07T10:40:48;100960.22;;;0.77;61.15
69879;BME280;57161;43.136;24.706;2023-02-07T10:45:58;100924.41;;;0.48;60.16
69879;BME280;57161;43.136;24.706;2023-02-07T10:48:25;100941.69;;;0.48;59.73
69879;BME280;57161;43.136;24.706;2023-02-07T10:50:51;100954.28;;;0.49;61.75
69879;BME280;57161;43.136;24.706;2023-02-07T10:53:46;100949.16;;;0.64;60.64
69879;BME280;57161;43.136;24.706;2023-02-07T10:56:23;100926.41;;;0.47;61.84
69879;BME280;57161;43.136;24.706;2023-02-07T10:58:50;100941.50;;;0.72;61.60
69879;BME280;57161;43.136;24.706;2023-02-07T11:01:19;100926.91;;;0.87;61.27
69879;BME280;57161;43.136;24.706;2023-02-07T11:03:46;100955.09;;;1.20;62.24
69879;BME280;57161;43.136;24.706;2023-02-07T11:06:14;100934.03;;;1.27;60.34
69879;BME280;57161;43.136;24.706;2023-02-07T11:08:40;100958.63;;;1.34;60.15
69879;BME280;57161;43.136;24.706;2023-02-07T11:11:31;100947.13;;;1.10;59.86
69879;BME280;57161;43.136;24.706;2023-02-07T11:14:02;100930.91;;;0.99;60.18
69879;BME280;57161;43.136;24.706;2023-02-07T11:16:28;100938.88;;;1.23;59.65
69879;BME280;57161;43.136;24.706;2023-02-07T11:18:57;100959.28;;;1.25;60.43
69879;BME280;57161;43.136;24.706;2023-02-07T11:24:23;100955.91;;;0.76;62.27
69879;BME280;57161;43.136;24.706;2023-02-07T11:29:37;100940.63;;;0.75;61.95
69879;BME280;57161;43.136;24.706;2023-02-07T11:32:04;100944.19;;;0.59;62.28
69879;BME280;57161;43.136;24.706;2023-02-07T11:34:50;100941.94;;;0.70;62.47
69879;BME280;57161;43.136;24.706;2023-02-07T11:37:29;100932.22;;;0.66;62.33
69879;BME280;57161;43.136;24.706;2023-02-07T11:42:46;100933.03;;;0.79;61.99
69879;BME280;57161;43.136;24.706;2023-02-07T11:45:19;100925.38;;;0.86;61.42
69879;BME280;57161;43.136;24.706;2023-02-07T11:47:47;100920.28;;;0.56;62.58
69879;BME280;57161;43.136;24.706;2023-02-07T11:50:31;100876.94;;;0.31;62.01
69879;BME280;57161;43.136;24.706;2023-02-07T11:53:00;100932.19;;;0.82;60.97
69879;BME280;57161;43.136;24.706;2023-02-07T11:57:55;100927.56;;;0.92;61.75
69879;BME280;57161;43.136;24.706;2023-02-07T12:00:26;100928.56;;;0.85;60.63
69879;BME280;57161;43.136;24.706;2023-02-07T12:03:33;100917.72;;;0.78;62.69
69879;BME280;57161;43.136;24.706;2023-02-07T12:05:54;100927.13;;;0.93;61.37
69879;BME280;57161;43.136;24.706;2023-02-07T12:08:24;100922.78;;;1.08;61.71
69879;BME280;57161;43.136;24.706;2023-02-07T12:11:14;100923.16;;;0.81;61.54
69879;BME280;57161;43.136;24.706;2023-02-07T12:14:08;100915.75;;;0.78;63.29
69879;BME280;57161;43.136;24.706;2023-02-07T12:16:45;100901.16;;;0.94;61.40
69879;BME280;57161;43.136;24.706;2023-02-07T12:19:21;100895.78;;;1.03;60.76
69879;BME280;57161;43.136;24.706;2023-02-07T12:24:23;100899.44;;;1.13;59.62
69879;BME280;57161;43.136;24.706;2023-02-07T12:26:57;100908.56;;;1.10;59.72
69879;BME280;57161;43.136;24.706;2023-02-07T12:30:15;100919.97;;;0.96;59.25
69879;BME280;57161;43.136;24.706;2023-02-07T12:32:57;100925.53;;;1.08;61.44
69879;BME280;57161;43.136;24.706;2023-02-07T12:35:40;100918.16;;;1.05;60.14
69879;BME280;57161;43.136;24.706;2023-02-07T12:43:23;100926.75;;;1.07;60.17
69879;BME280;57161;43.136;24.706;2023-02-07T13:03:33;100918.69;;;1.00;59.59
69879;BME280;57161;43.136;24.706;2023-02-07T13:08:13;100925.38;;;0.86;60.68
69879;BME280;57161;43.136;24.706;2023-02-07T13:19:30;100922.66;;;1.12;58.92
69879;BME280;57161;43.136;24.706;2023-02-07T13:23:00;100930.91;;;0.99;58.47
69879;BME280;57161;43.136;24.706;2023-02-07T13:25:33;100902.38;;;0.64;59.74
69879;BME280;57161;43.136;24.706;2023-02-07T13:28:04;100929.59;;;0.75;59.91
69879;BME280;57161;43.136;24.706;2023-02-07T13:30:32;100890.59;;;0.64;59.70
69879;BME280;57161;43.136;24.706;2023-02-07T13:33:02;100934.41;;;0.87;59.53
69879;BME280;57161;43.136;24.706;2023-02-07T13:35:31;100920.63;;;0.87;58.37
69879;BME280;57161;43.136;24.706;2023-02-07T13:41:04;100928.41;;;0.76;57.39
69879;BME280;57161;43.136;24.706;2023-02-07T13:52:28;100935.16;;;0.87;58.10
69879;BME280;57161;43.136;24.706;2023-02-07T14:00:18;100903.16;;;0.65;57.08
69879;BME280;57161;43.136;24.706;2023-02-07T14:03:01;100925.09;;;0.68;57.71
69879;BME280;57161;43.136;24.706;2023-02-07T14:08:19;100889.66;;;0.41;57.84
69879;BME280;57161;43.136;24.706;2023-02-07T14:10:52;100926.91;;;0.58;58.08
69879;BME280;57161;43.136;24.706;2023-02-07T14:15:55;100922.06;;;0.63;57.23
69879;BME280;57161;43.136;24.706;2023-02-07T14:24:03;100922.16;;;0.59;57.38
69879;BME280;57161;43.136;24.706;2023-02-07T14:31:54;100928.78;;;0.33;58.35
69879;BME280;57161;43.136;24.706;2023-02-07T14:34:20;100930.31;;;0.34;59.18
69879;BME280;57161;43.136;24.706;2023-02-07T14:36:47;100926.84;;;0.29;58.35
69879;BME280;57161;43.136;24.706;2023-02-07T14:41:46;100907.41;;;-0.09;59.51
69879;BME280;57161;43.136;24.706;2023-02-07T14:44:28;100930.41;;;0.14;58.94
69879;BME280;57161;43.136;24.706;2023-02-07T14:46:58;100898.72;;;-0.07;60.07
69879;BME280;57161;43.136;24.706;2023-02-07T14:52:02;100929.38;;;0.08;59.54
69879;BME280;57161;43.136;24.706;2023-02-07T14:54:40;100910.81;;;-0.05;59.09
69879;BME280;57161;43.136;24.706;2023-02-07T15:05:30;100928.94;;;0.09;58.64
69879;BME280;57161;43.136;24.706;2023-02-07T15:13:01;100930.06;;;0.12;60.00
69879;BME280;57161;43.136;24.706;2023-02-07T15:15:42;100927.66;;;0.14;59.77
69879;BME280;57161;43.136;24.706;2023-02-07T15:18:12;100927.91;;;0.19;59.44
69879;BME280;57161;43.136;24.706;2023-02-07T15:20:39;100920.25;;;0.11;58.71
69879;BME280;57161;43.136;24.706;2023-02-07T15:23:05;100887.63;;;-0.04;59.01
69879;BME280;57161;43.136;24.706;2023-02-07T15:25:36;100936.16;;;0.19;58.17
69879;BME280;57161;43.136;24.706;2023-02-07T15:28:05;100930.41;;;0.14;58.44